Alpharetta, Georgia
Current Conditions -  °F | °C
As of 9:53 PM on Tuesday 25 Nov 2014 (Local Time) from KPDK Reporting Station
Overcast Overcast  
Wind Chill: 11°   Ceiling: 10000
Heat Index: 11°   Visibility: 10mi
Dew Point: -2°   Wind: 5mph
Humidity: 41%   Direction: 300°WNW
Pressure: 30.04"   Gusts: NA
Location:  34.08°N, 84.29°W
Report Text: KPDK 260253Z 30004KT 10SM OVC100 11/M02 A3004 RMK AO2 SLP173 T01111017 56008
Loading
Personal Weather Stations






























Interactive Weather Map New forecast layout! Learn more

10-Day Weather Forecast

Advertisements
Track Severe Weather on mobile